Time;durP1;ratioP1;P1;durP2;ratioP2;P2;SDS_P1;SDS_P2;PMS_P1;PMS_P2;Temp;Humidity;BMP_temperature;BMP_pressure;BME280_temperature;BME280_humidity;BME280_pressure;Samples;Min_cycle;Max_cycle;Signal;HPM_P1;HPM_P2
2022/09/10 00:02:17;;;;;;;16.88;12.18;;;;;;;;;;4979620;28;20050;-81
2022/09/10 00:04:43;;;;;;;14.45;12.07;;;;;;;;;;4955650;28;20054;-81
2022/09/10 00:07:09;;;;;;;17.30;12.45;;;;;;;;;;4977480;28;20047;-81
2022/09/10 00:09:35;;;;;;;16.85;12.85;;;;;;;;;;4980591;28;20047;-81
2022/09/10 00:12:01;;;;;;;16.35;12.85;;;;;;;;;;4970547;28;20144;-81
2022/09/10 00:14:27;;;;;;;18.83;13.27;;;;;;;;;;4970219;28;20395;-81
2022/09/10 00:16:53;;;;;;;19.23;13.13;;;;;;;;;;4968733;28;20043;-81
2022/09/10 00:19:20;;;;;;;19.35;13.90;;;;;;;;;;4970229;28;20047;-81
2022/09/10 00:21:49;;;;;;;19.38;13.88;;;;;;;;;;4978691;28;20082;-82
2022/09/10 00:24:15;;;;;;;20.10;13.63;;;;;;;;;;4986260;28;20144;-81
2022/09/10 00:26:41;;;;;;;20.27;14.38;;;;;;;;;;4987865;28;20676;-81
2022/09/10 00:29:09;;;;;;;20.23;14.63;;;;;;;;;;4988181;28;20046;-81
2022/09/10 00:31:35;;;;;;;20.23;14.50;;;;;;;;;;4989805;28;20057;-81
2022/09/10 00:34:02;;;;;;;21.63;14.75;;;;;;;;;;4989225;28;20054;-82
2022/09/10 00:36:38;;;;;;;22.60;14.70;;;;;;;;;;4979647;28;20062;-81
2022/09/10 00:39:05;;;;;;;20.30;15.13;;;;;;;;;;4974051;28;20050;-81
2022/09/10 00:41:32;;;;;;;25.95;15.60;;;;;;;;;;4972663;28;20124;-81
2022/09/10 00:44:01;;;;;;;23.35;15.27;;;;;;;;;;4990427;28;20165;-81
2022/09/10 00:46:33;;;;;;;23.40;16.17;;;;;;;;;;4991916;28;20057;-81
2022/09/10 00:49:01;;;;;;;25.67;16.98;;;;;;;;;;4992844;28;20046;-81
2022/09/10 00:51:29;;;;;;;23.38;16.33;;;;;;;;;;4991045;28;20424;-81
2022/09/10 00:53:56;;;;;;;25.35;16.95;;;;;;;;;;4991355;28;20046;-81
2022/09/10 00:56:22;;;;;;;23.08;16.40;;;;;;;;;;4992058;28;20038;-81
2022/09/10 00:58:48;;;;;;;25.73;17.23;;;;;;;;;;4991053;28;20104;-81
2022/09/10 01:01:14;;;;;;;25.25;18.80;;;;;;;;;;4991125;28;20042;-81
2022/09/10 01:03:42;;;;;;;27.42;19.75;;;;;;;;;;4991629;28;20104;-81
2022/09/10 01:06:09;;;;;;;29.05;19.73;;;;;;;;;;4973228;28;20483;-81
2022/09/10 01:08:35;;;;;;;27.70;18.98;;;;;;;;;;4988656;28;20046;-81
2022/09/10 01:11:01;;;;;;;31.02;19.45;;;;;;;;;;4973975;28;20093;-81
2022/09/10 01:13:43;;;;;;;28.98;19.73;;;;;;;;;;4973304;28;20050;-81
2022/09/10 01:16:12;;;;;;;31.38;20.92;;;;;;;;;;4973101;28;20045;-81
2022/09/10 01:18:38;;;;;;;34.47;21.40;;;;;;;;;;4985741;28;20129;-81
2022/09/10 01:21:22;;;;;;;31.40;21.05;;;;;;;;;;4989243;28;20046;-81
2022/09/10 01:24:13;;;;;;;32.42;21.10;;;;;;;;;;4991049;28;20254;-81
2022/09/10 01:26:57;;;;;;;35.30;21.05;;;;;;;;;;4991255;28;20058;-81
2022/09/10 01:29:35;;;;;;;39.17;21.55;;;;;;;;;;4992190;28;20046;-81
2022/09/10 01:32:14;;;;;;;32.63;21.17;;;;;;;;;;4991657;28;20509;-81
2022/09/10 01:34:47;;;;;;;37.22;21.73;;;;;;;;;;4988684;28;20054;-81
2022/09/10 01:37:19;;;;;;;34.83;22.48;;;;;;;;;;4980331;28;20051;-81
2022/09/10 01:39:46;;;;;;;38.42;22.05;;;;;;;;;;4977265;28;20051;-81
2022/09/10 01:42:13;;;;;;;35.78;21.95;;;;;;;;;;4975691;28;20478;-81
2022/09/10 01:44:43;;;;;;;38.80;23.38;;;;;;;;;;4972520;28;20054;-81
2022/09/10 01:47:26;;;;;;;36.20;22.58;;;;;;;;;;4972292;28;20468;-81
2022/09/10 01:50:11;;;;;;;39.83;24.23;;;;;;;;;;4971820;28;20051;-81
2022/09/10 01:52:46;;;;;;;38.60;24.50;;;;;;;;;;4972364;28;20113;-81
2022/09/10 01:55:35;;;;;;;36.03;22.70;;;;;;;;;;4969646;28;20491;-81
2022/09/10 01:58:19;;;;;;;41.20;24.25;;;;;;;;;;4973289;28;20047;-81
2022/09/10 02:01:05;;;;;;;40.80;24.13;;;;;;;;;;4972504;28;20058;-81
2022/09/10 02:03:32;;;;;;;38.58;23.95;;;;;;;;;;4960637;28;20132;-81
2022/09/10 02:05:59;;;;;;;43.90;24.45;;;;;;;;;;4965571;28;20077;-81
2022/09/10 02:08:33;;;;;;;41.88;23.88;;;;;;;;;;4973206;28;20069;-81
2022/09/10 02:11:05;;;;;;;41.80;24.65;;;;;;;;;;4976989;28;20061;-81
2022/09/10 02:13:32;;;;;;;47.08;25.38;;;;;;;;;;4991460;28;20057;-81
2022/09/10 02:15:58;;;;;;;38.38;24.27;;;;;;;;;;4990706;28;20506;-81
2022/09/10 02:18:25;;;;;;;37.92;24.23;;;;;;;;;;4978373;28;20043;-81
2022/09/10 02:20:54;;;;;;;42.00;24.60;;;;;;;;;;4970675;28;20055;-81
2022/09/10 02:23:24;;;;;;;42.67;25.65;;;;;;;;;;4971745;28;20065;-81
2022/09/10 02:25:50;;;;;;;41.10;24.45;;;;;;;;;;4971523;28;20499;-81
2022/09/10 02:28:17;;;;;;;39.70;23.85;;;;;;;;;;4982864;28;20096;-81
2022/09/10 02:30:43;;;;;;;39.08;23.35;;;;;;;;;;4990701;28;20054;-81
2022/09/10 02:33:10;;;;;;;41.55;23.63;;;;;;;;;;4985940;28;20570;-81
2022/09/10 02:35:37;;;;;;;37.92;24.50;;;;;;;;;;4983927;28;20057;-81
2022/09/10 02:38:04;;;;;;;38.92;23.90;;;;;;;;;;4972446;28;20074;-81
2022/09/10 02:40:30;;;;;;;39.20;23.45;;;;;;;;;;4971223;28;20051;-82
2022/09/10 02:42:57;;;;;;;37.30;24.83;;;;;;;;;;4974531;28;20507;-81
2022/09/10 02:45:23;;;;;;;35.30;23.42;;;;;;;;;;4990685;28;20046;-81
2022/09/10 02:47:49;;;;;;;41.60;25.00;;;;;;;;;;4989074;28;20069;-81
2022/09/10 02:50:16;;;;;;;37.78;23.38;;;;;;;;;;4960547;28;20133;-81
2022/09/10 02:52:44;;;;;;;36.40;23.52;;;;;;;;;;4971306;28;20078;-81
2022/09/10 02:55:11;;;;;;;42.08;25.50;;;;;;;;;;4969452;28;20046;-81
2022/09/10 02:57:38;;;;;;;38.63;24.10;;;;;;;;;;4980192;28;20140;-81
2022/09/10 03:00:05;;;;;;;41.88;24.33;;;;;;;;;;4990124;28;20057;-81
2022/09/10 03:02:31;;;;;;;38.10;24.85;;;;;;;;;;4986933;28;20054;-81
2022/09/10 03:04:57;;;;;;;39.80;24.77;;;;;;;;;;4973783;28;20059;-81
2022/09/10 03:07:23;;;;;;;42.13;24.23;;;;;;;;;;4957857;28;20062;-81
2022/09/10 03:09:49;;;;;;;37.88;24.48;;;;;;;;;;4988114;28;20050;-81
2022/09/10 03:12:15;;;;;;;40.67;24.20;;;;;;;;;;4988803;28;20434;-81
2022/09/10 03:14:42;;;;;;;39.40;24.45;;;;;;;;;;4990197;28;20093;-81
2022/09/10 03:17:08;;;;;;;38.00;23.15;;;;;;;;;;4987446;28;20045;-81
2022/09/10 03:19:34;;;;;;;36.85;23.50;;;;;;;;;;4987784;28;20070;-81
2022/09/10 03:22:00;;;;;;;37.35;24.63;;;;;;;;;;4990082;28;20085;-81
2022/09/10 03:24:27;;;;;;;37.40;24.15;;;;;;;;;;4989939;28;20054;-81
2022/09/10 03:26:53;;;;;;;39.15;23.65;;;;;;;;;;4970681;28;20039;-81
2022/09/10 03:29:21;;;;;;;40.05;24.38;;;;;;;;;;4969522;28;20050;-81
2022/09/10 03:31:50;;;;;;;38.95;24.52;;;;;;;;;;4971379;28;20046;-81
2022/09/10 03:34:16;;;;;;;37.58;24.52;;;;;;;;;;4973439;28;20085;-81
2022/09/10 03:36:42;;;;;;;37.65;23.58;;;;;;;;;;4979126;28;20137;-81
2022/09/10 03:39:08;;;;;;;37.90;24.15;;;;;;;;;;4987993;28;20483;-82
2022/09/10 03:41:35;;;;;;;39.78;24.13;;;;;;;;;;4990020;28;20102;-82
2022/09/10 03:44:01;;;;;;;37.53;23.35;;;;;;;;;;4987991;28;20064;-82
2022/09/10 03:46:27;;;;;;;40.45;24.70;;;;;;;;;;4988373;28;20050;-82
2022/09/10 03:48:53;;;;;;;38.17;24.02;;;;;;;;;;4975068;28;20093;-82
2022/09/10 03:51:19;;;;;;;41.63;24.42;;;;;;;;;;4970531;28;20050;-82
2022/09/10 03:53:45;;;;;;;40.00;25.20;;;;;;;;;;4970316;28;20388;-82
2022/09/10 03:56:11;;;;;;;40.10;24.38;;;;;;;;;;4987998;28;20082;-82
2022/09/10 03:58:37;;;;;;;38.17;24.55;;;;;;;;;;4972912;28;20133;-82
2022/09/10 04:01:04;;;;;;;45.72;26.02;;;;;;;;;;4968492;28;20090;-82
2022/09/10 04:03:30;;;;;;;41.13;24.02;;;;;;;;;;4974580;28;20506;-81
2022/09/10 04:05:57;;;;;;;43.45;25.58;;;;;;;;;;4968734;28;20408;-82
2022/09/10 04:08:23;;;;;;;42.33;26.23;;;;;;;;;;4953101;28;20058;-82
2022/09/10 04:10:49;;;;;;;39.30;25.20;;;;;;;;;;4969056;28;20459;-82
2022/09/10 04:13:15;;;;;;;40.42;25.77;;;;;;;;;;4968481;28;20058;-82
2022/09/10 04:15:45;;;;;;;42.53;24.83;;;;;;;;;;4969118;28;20049;-82
2022/09/10 04:18:11;;;;;;;41.50;25.77;;;;;;;;;;4975027;28;20105;-82
2022/09/10 04:20:37;;;;;;;40.33;25.77;;;;;;;;;;4972796;28;20431;-82
2022/09/10 04:23:04;;;;;;;42.83;26.50;;;;;;;;;;4975976;28;20049;-82
2022/09/10 04:25:30;;;;;;;38.55;25.65;;;;;;;;;;4992845;28;20509;-82
2022/09/10 04:27:56;;;;;;;47.17;27.15;;;;;;;;;;4975071;28;20065;-81
2022/09/10 04:30:22;;;;;;;45.50;26.50;;;;;;;;;;4993419;28;20045;-81
2022/09/10 04:32:49;;;;;;;43.15;27.25;;;;;;;;;;4984530;28;20051;-81
2022/09/10 04:35:15;;;;;;;42.05;25.92;;;;;;;;;;4973123;28;20043;-81
2022/09/10 04:37:42;;;;;;;45.78;27.08;;;;;;;;;;4991350;28;20058;-82
2022/09/10 04:40:08;;;;;;;44.42;26.45;;;;;;;;;;4973928;28;20050;-81
2022/09/10 04:42:34;;;;;;;43.45;26.25;;;;;;;;;;4986973;28;20160;-81
2022/09/10 04:45:01;;;;;;;40.63;26.05;;;;;;;;;;4991187;28;20054;-81
2022/09/10 04:47:27;;;;;;;47.03;28.67;;;;;;;;;;4990078;28;20050;-82
2022/09/10 04:49:53;;;;;;;45.42;27.05;;;;;;;;;;4995157;28;20042;-82
2022/09/10 04:52:21;;;;;;;45.00;27.35;;;;;;;;;;4994461;28;20082;-81
2022/09/10 04:54:47;;;;;;;45.05;26.92;;;;;;;;;;4981358;28;20650;-81
2022/09/10 04:57:13;;;;;;;44.47;26.92;;;;;;;;;;4972510;28;20042;-81
2022/09/10 04:59:40;;;;;;;44.92;27.25;;;;;;;;;;4973384;28;20074;-82
2022/09/10 05:02:08;;;;;;;45.63;27.55;;;;;;;;;;4979409;28;20053;-81
2022/09/10 05:04:34;;;;;;;46.00;26.45;;;;;;;;;;4992317;28;20050;-81
2022/09/10 05:07:00;;;;;;;44.95;26.98;;;;;;;;;;4991056;28;20054;-81
2022/09/10 05:09:32;;;;;;;47.95;27.45;;;;;;;;;;4976077;28;20663;-82
2022/09/10 05:11:59;;;;;;;45.00;27.23;;;;;;;;;;4987710;28;20121;-81
2022/09/10 05:14:26;;;;;;;42.88;26.95;;;;;;;;;;4972847;28;20093;-82
2022/09/10 05:16:52;;;;;;;41.88;27.23;;;;;;;;;;4980941;28;20046;-81
2022/09/10 05:19:18;;;;;;;46.70;28.10;;;;;;;;;;4989058;28;20059;-81
2022/09/10 05:21:44;;;;;;;49.20;29.30;;;;;;;;;;4972753;28;20470;-81
2022/09/10 05:24:11;;;;;;;47.03;29.45;;;;;;;;;;4972641;28;20042;-81
2022/09/10 05:26:37;;;;;;;47.65;29.23;;;;;;;;;;4971815;28;20047;-81
2022/09/10 05:29:03;;;;;;;48.13;28.40;;;;;;;;;;4972750;28;20105;-81
2022/09/10 05:31:29;;;;;;;51.33;29.05;;;;;;;;;;4973872;28;20129;-81
2022/09/10 05:33:55;;;;;;;46.13;28.50;;;;;;;;;;4979601;28;20053;-81
2022/09/10 05:36:21;;;;;;;49.22;30.27;;;;;;;;;;4972401;28;20042;-81
2022/09/10 05:38:47;;;;;;;44.60;27.95;;;;;;;;;;4985346;28;20400;-81
2022/09/10 05:41:13;;;;;;;46.05;28.65;;;;;;;;;;4989382;28;20061;-81
2022/09/10 05:43:40;;;;;;;48.53;29.85;;;;;;;;;;4973061;28;20051;-81
2022/09/10 05:46:07;;;;;;;54.05;30.05;;;;;;;;;;4970898;28;20503;-82
2022/09/10 05:48:33;;;;;;;45.17;28.63;;;;;;;;;;4979657;28;20133;-81
2022/09/10 05:51:00;;;;;;;43.33;28.00;;;;;;;;;;4990692;28;20129;-81
2022/09/10 05:53:26;;;;;;;46.78;28.25;;;;;;;;;;4992397;28;20102;-81
2022/09/10 05:55:52;;;;;;;50.83;29.35;;;;;;;;;;4973845;28;20467;-81
2022/09/10 05:58:18;;;;;;;48.20;29.85;;;;;;;;;;4972734;28;20082;-82
2022/09/10 06:00:44;;;;;;;44.08;29.13;;;;;;;;;;4972670;28;20061;-81
2022/09/10 06:03:11;;;;;;;48.15;29.27;;;;;;;;;;4987727;28;20133;-82
2022/09/10 06:05:37;;;;;;;45.13;28.02;;;;;;;;;;4991487;28;20046;-81
2022/09/10 06:08:03;;;;;;;48.25;29.25;;;;;;;;;;4959356;28;20766;-82
2022/09/10 06:10:31;;;;;;;47.72;28.00;;;;;;;;;;4970220;28;20050;-82
2022/09/10 06:12:57;;;;;;;48.20;29.80;;;;;;;;;;4971922;28;20512;-82
2022/09/10 06:15:23;;;;;;;44.28;27.38;;;;;;;;;;4971763;28;20047;-81
2022/09/10 06:17:52;;;;;;;44.63;29.08;;;;;;;;;;4987321;28;20054;-82
2022/09/10 06:20:19;;;;;;;48.92;29.48;;;;;;;;;;4990001;28;20054;-81
2022/09/10 06:22:45;;;;;;;43.25;28.95;;;;;;;;;;4990452;28;20046;-81
2022/09/10 06:25:11;;;;;;;43.92;27.38;;;;;;;;;;4984095;28;20082;-84
2022/09/10 06:27:37;;;;;;;46.28;28.65;;;;;;;;;;4990393;28;20130;-81
2022/09/10 06:30:04;;;;;;;44.97;27.85;;;;;;;;;;4989672;28;20708;-81
2022/09/10 06:32:31;;;;;;;45.10;27.77;;;;;;;;;;4986496;28;20072;-81
2022/09/10 06:34:57;;;;;;;48.08;28.55;;;;;;;;;;4990726;28;20101;-80
2022/09/10 06:37:23;;;;;;;46.60;28.20;;;;;;;;;;4987199;28;20054;-81
2022/09/10 06:39:49;;;;;;;46.88;28.48;;;;;;;;;;4970835;28;20129;-81
2022/09/10 06:42:15;;;;;;;44.13;28.05;;;;;;;;;;4970598;28;20456;-81
2022/09/10 06:44:41;;;;;;;45.08;29.23;;;;;;;;;;4974098;28;20467;-82
2022/09/10 06:47:08;;;;;;;42.08;26.98;;;;;;;;;;4986211;28;20053;-82
2022/09/10 06:49:35;;;;;;;44.45;28.00;;;;;;;;;;4982716;28;20053;-81
2022/09/10 06:52:01;;;;;;;45.45;27.80;;;;;;;;;;4989055;28;20398;-81
2022/09/10 06:54:27;;;;;;;44.83;28.65;;;;;;;;;;4989278;28;20515;-81
2022/09/10 06:56:53;;;;;;;43.92;26.95;;;;;;;;;;4989463;28;20081;-82
2022/09/10 06:59:19;;;;;;;43.75;26.27;;;;;;;;;;4991305;28;20056;-81
2022/09/10 07:01:46;;;;;;;38.40;25.65;;;;;;;;;;4989402;28;20411;-81
2022/09/10 07:04:12;;;;;;;35.08;23.60;;;;;;;;;;4989889;28;20050;-82
2022/09/10 07:06:38;;;;;;;39.05;26.05;;;;;;;;;;4989372;28;20050;-81
2022/09/10 07:09:05;;;;;;;38.28;25.35;;;;;;;;;;4984104;28;20050;-81
2022/09/10 07:11:31;;;;;;;37.42;24.45;;;;;;;;;;4973923;28;20070;-81
2022/09/10 07:13:58;;;;;;;37.35;24.98;;;;;;;;;;4982671;28;20061;-81
2022/09/10 07:16:25;;;;;;;36.92;23.77;;;;;;;;;;4969926;28;20078;-81
2022/09/10 07:18:53;;;;;;;36.78;24.40;;;;;;;;;;4954884;28;20073;-82
2022/09/10 07:21:19;;;;;;;33.20;23.98;;;;;;;;;;4980844;28;20444;-82
2022/09/10 07:23:47;;;;;;;37.70;24.70;;;;;;;;;;4975975;28;20046;-82
2022/09/10 07:26:16;;;;;;;43.70;26.27;;;;;;;;;;4988712;28;20042;-82
2022/09/10 07:28:43;;;;;;;38.67;25.02;;;;;;;;;;4990273;28;20125;-81
2022/09/10 07:31:20;;;;;;;37.35;25.02;;;;;;;;;;4983786;28;20046;-82
2022/09/10 07:33:47;;;;;;;34.92;23.83;;;;;;;;;;4969548;28;20534;-83
2022/09/10 07:36:14;;;;;;;38.80;24.55;;;;;;;;;;4970227;28;20110;-82
2022/09/10 07:38:40;;;;;;;33.40;22.67;;;;;;;;;;4969597;28;20051;-83
2022/09/10 07:41:09;;;;;;;35.85;23.75;;;;;;;;;;4970048;28;20050;-83
2022/09/10 07:43:37;;;;;;;32.50;23.05;;;;;;;;;;4970797;28;20062;-83
2022/09/10 07:46:04;;;;;;;35.50;24.17;;;;;;;;;;4969965;28;20425;-86
2022/09/10 07:48:30;;;;;;;34.92;23.58;;;;;;;;;;4969283;28;20054;-84
2022/09/10 07:51:03;;;;;;;34.95;23.60;;;;;;;;;;4970002;28;20047;-85
2022/09/10 07:53:29;;;;;;;33.38;23.63;;;;;;;;;;4973231;28;20054;-85
2022/09/10 07:56:02;;;;;;;36.10;24.00;;;;;;;;;;4981259;28;20129;-84
2022/09/10 07:58:30;;;;;;;35.28;24.75;;;;;;;;;;4975990;28;20050;-82
2022/09/10 08:00:58;;;;;;;34.60;24.20;;;;;;;;;;4979633;28;20051;-82
2022/09/10 08:03:24;;;;;;;33.15;22.77;;;;;;;;;;4974720;28;20050;-81
2022/09/10 08:05:54;;;;;;;35.63;24.83;;;;;;;;;;4992492;28;20055;-82
2022/09/10 08:08:20;;;;;;;39.05;23.50;;;;;;;;;;4972331;28;20476;-81
2022/09/10 08:10:47;;;;;;;35.20;23.98;;;;;;;;;;4994209;28;20042;-81
2022/09/10 08:13:14;;;;;;;35.58;23.80;;;;;;;;;;4973991;28;20547;-81
2022/09/10 08:15:43;;;;;;;32.13;23.27;;;;;;;;;;4974389;28;20149;-81
2022/09/10 08:18:10;;;;;;;31.88;22.30;;;;;;;;;;4984717;28;20073;-82
2022/09/10 08:20:38;;;;;;;31.40;22.98;;;;;;;;;;4975212;28;20450;-81
2022/09/10 08:23:05;;;;;;;31.05;23.05;;;;;;;;;;4976786;28;20046;-82
2022/09/10 08:25:32;;;;;;;33.25;22.92;;;;;;;;;;4972432;28;20134;-82
2022/09/10 08:27:58;;;;;;;29.63;21.77;;;;;;;;;;4987343;28;20046;-82
2022/09/10 08:30:25;;;;;;;32.28;21.95;;;;;;;;;;4977147;28;20096;-82
2022/09/10 08:32:51;;;;;;;29.95;21.25;;;;;;;;;;4986508;28;20092;-82
2022/09/10 08:35:18;;;;;;;29.38;21.75;;;;;;;;;;4982916;28;20134;-81
2022/09/10 08:37:44;;;;;;;33.22;22.30;;;;;;;;;;4984147;28;20068;-81
2022/09/10 08:40:13;;;;;;;28.83;21.02;;;;;;;;;;4982445;28;20058;-81
2022/09/10 08:42:45;;;;;;;29.63;20.88;;;;;;;;;;4981700;28;20341;-86
2022/09/10 08:45:15;;;;;;;28.30;20.92;;;;;;;;;;4958597;28;20046;-82
2022/09/10 08:47:48;;;;;;;32.17;21.50;;;;;;;;;;4992104;28;20049;-82
2022/09/10 08:50:22;;;;;;;27.60;20.45;;;;;;;;;;4983052;28;20050;-82
2022/09/10 08:52:48;;;;;;;28.02;19.40;;;;;;;;;;4967451;28;20488;-82
2022/09/10 08:55:17;;;;;;;29.65;20.85;;;;;;;;;;4977061;28;20053;-81
2022/09/10 08:57:46;;;;;;;26.60;20.52;;;;;;;;;;4972120;28;20069;-81
2022/09/10 09:00:23;;;;;;;34.42;21.13;;;;;;;;;;4974211;28;20515;-81
2022/09/10 09:03:01;;;;;;;27.92;19.88;;;;;;;;;;4979672;28;20511;-81
2022/09/10 09:05:29;;;;;;;29.70;21.38;;;;;;;;;;4986403;28;20055;-81
2022/09/10 09:07:58;;;;;;;28.80;20.38;;;;;;;;;;4982248;28;20046;-82
2022/09/10 09:10:24;;;;;;;28.80;21.40;;;;;;;;;;4971976;28;20499;-81
2022/09/10 09:12:59;;;;;;;31.77;21.42;;;;;;;;;;4974230;28;20047;-81
2022/09/10 09:15:39;;;;;;;32.42;21.25;;;;;;;;;;4985205;28;20074;-81
2022/09/10 09:18:12;;;;;;;30.98;20.83;;;;;;;;;;4971842;28;20058;-81
2022/09/10 09:20:46;;;;;;;27.90;19.90;;;;;;;;;;4986584;28;20050;-81
2022/09/10 09:23:12;;;;;;;34.17;20.13;;;;;;;;;;4983267;28;20116;-81
2022/09/10 09:25:46;;;;;;;27.23;20.50;;;;;;;;;;4975170;28;20054;-81
2022/09/10 09:28:33;;;;;;;27.73;20.02;;;;;;;;;;4991992;28;20046;-81
2022/09/10 09:30:59;;;;;;;;;;;;;;;;;;4991243;28;20061;-81
2022/09/10 09:33:27;;;;;;;32.60;20.77;;;;;;;;;;4990451;28;20008;-81
2022/09/10 09:36:03;;;;;;;28.73;19.70;;;;;;;;;;4989339;28;20042;-81
2022/09/10 09:38:37;;;;;;;30.00;20.20;;;;;;;;;;4990695;28;20054;-81
2022/09/10 09:41:16;;;;;;;28.70;20.40;;;;;;;;;;4972005;28;20515;-82
2022/09/10 09:43:42;;;;;;;27.95;19.85;;;;;;;;;;4977391;28;20079;-82
2022/09/10 09:46:14;;;;;;;30.13;19.13;;;;;;;;;;4980117;28;20043;-82
2022/09/10 09:48:40;;;;;;;29.05;21.10;;;;;;;;;;4989302;28;20411;-81
2022/09/10 09:51:10;;;;;;;26.65;18.13;;;;;;;;;;4990352;28;20078;-81
2022/09/10 09:53:36;;;;;;;26.77;18.77;;;;;;;;;;4992031;28;20046;-81
2022/09/10 09:56:11;;;;;;;29.20;18.08;;;;;;;;;;4971981;28;20051;-81
2022/09/10 09:58:38;;;;;;;24.27;18.90;;;;;;;;;;4991661;28;20566;-81
2022/09/10 10:01:05;;;;;;;31.98;18.90;;;;;;;;;;4975034;28;20085;-81
2022/09/10 10:03:32;;;;;;;23.88;17.63;;;;;;;;;;4984654;28;20061;-81
2022/09/10 10:06:01;;;;;;;24.75;17.10;;;;;;;;;;4974404;28;20055;-81
2022/09/10 10:08:29;;;;;;;30.23;17.35;;;;;;;;;;4967563;28;20571;-81
2022/09/10 10:10:55;;;;;;;22.65;17.35;;;;;;;;;;4954472;28;20058;-80
2022/09/10 10:13:21;;;;;;;24.63;17.00;;;;;;;;;;4972020;28;20467;-83
2022/09/10 10:15:47;;;;;;;26.63;17.50;;;;;;;;;;4987168;28;20099;-81
2022/09/10 10:18:24;;;;;;;24.00;16.10;;;;;;;;;;4989665;28;20129;-81
2022/09/10 10:21:05;;;;;;;21.17;15.68;;;;;;;;;;4976847;28;20050;-81
2022/09/10 10:23:35;;;;;;;23.65;15.50;;;;;;;;;;4973771;28;20058;-81
2022/09/10 10:26:15;;;;;;;23.30;16.05;;;;;;;;;;4974620;28;20058;-81
2022/09/10 10:28:45;;;;;;;21.50;15.57;;;;;;;;;;4971901;28;20101;-81
2022/09/10 10:31:11;;;;;;;20.70;15.68;;;;;;;;;;4984162;28;20061;-81
2022/09/10 10:33:45;;;;;;;23.45;15.73;;;;;;;;;;4991071;28;20046;-81
2022/09/10 10:36:23;;;;;;;20.92;16.02;;;;;;;;;;4989123;28;20046;-80
2022/09/10 10:39:28;;;;;;;23.52;16.17;;;;;;;;;;4990925;28;20051;-81
2022/09/10 10:41:54;;;;;;;24.45;17.30;;;;;;;;;;4901225;29;20059;-82
2022/09/10 10:44:30;;;;;;;23.45;16.23;;;;;;;;;;4902888;29;20119;-82
2022/09/10 10:47:15;;;;;;;25.17;16.30;;;;;;;;;;4894350;29;20068;-82
2022/09/10 10:49:59;;;;;;;21.80;16.38;;;;;;;;;;4879031;29;20123;-82
2022/09/10 10:52:34;;;;;;;25.63;15.52;;;;;;;;;;4908648;29;20770;-82
2022/09/10 10:55:03;;;;;;;20.50;15.63;;;;;;;;;;4883924;29;20051;-82
2022/09/10 10:57:52;;;;;;;20.02;15.70;;;;;;;;;;4893943;29;20052;-82
2022/09/10 11:00:19;;;;;;;22.67;16.15;;;;;;;;;;4857523;29;20094;-82
2022/09/10 11:02:57;;;;;;;22.35;17.42;;;;;;;;;;4855435;29;20054;-82
2022/09/10 11:05:32;;;;;;;23.10;16.60;;;;;;;;;;4846092;29;20587;-82
2022/09/10 11:08:00;;;;;;;24.45;17.40;;;;;;;;;;4847960;29;20042;-83
2022/09/10 11:10:41;;;;;;;26.10;16.77;;;;;;;;;;4804586;29;20072;-82
2022/09/10 11:13:08;;;;;;;21.70;15.85;;;;;;;;;;4909065;29;20141;-82
2022/09/10 11:15:41;;;;;;;22.63;16.50;;;;;;;;;;4928535;29;20051;-85
2022/09/10 11:18:15;;;;;;;23.92;16.75;;;;;;;;;;4936078;29;20134;-83
2022/09/10 11:20:43;;;;;;;22.85;17.25;;;;;;;;;;4928690;29;20051;-83
2022/09/10 11:23:28;;;;;;;25.00;17.48;;;;;;;;;;4931172;29;20127;-82
2022/09/10 11:25:59;;;;;;;24.52;17.58;;;;;;;;;;4928771;29;20155;-83
2022/09/10 11:28:44;;;;;;;21.20;16.85;;;;;;;;;;4928222;29;20048;-82
2022/09/10 11:31:26;;;;;;;23.47;17.70;;;;;;;;;;4914413;29;20493;-82
2022/09/10 11:34:14;;;;;;;23.75;15.40;;;;;;;;;;4929279;29;20058;-82
2022/09/10 11:36:46;;;;;;;19.48;14.13;;;;;;;;;;4939146;28;20445;-82
2022/09/10 11:39:31;;;;;;;21.40;16.00;;;;;;;;;;4971315;28;20090;-81
2022/09/10 11:41:59;;;;;;;21.50;15.02;;;;;;;;;;4971780;28;20057;-81
2022/09/10 11:44:44;;;;;;;21.70;16.30;;;;;;;;;;5003210;28;20050;-81
2022/09/10 11:47:29;;;;;;;20.38;15.18;;;;;;;;;;4969573;28;20046;-81
2022/09/10 11:50:17;;;;;;;20.13;14.00;;;;;;;;;;4973644;28;20059;-81
2022/09/10 11:52:43;;;;;;;24.05;16.00;;;;;;;;;;4989839;28;20109;-81
2022/09/10 11:55:14;;;;;;;20.50;14.68;;;;;;;;;;4987205;28;20038;-81
2022/09/10 11:57:47;;;;;;;19.02;13.30;;;;;;;;;;4979009;28;20054;-81
2022/09/10 12:00:17;;;;;;;14.40;12.15;;;;;;;;;;4978357;28;20447;-81
2022/09/10 12:02:49;;;;;;;17.65;14.13;;;;;;;;;;4988906;28;20522;-81
2022/09/10 12:05:15;;;;;;;18.08;13.65;;;;;;;;;;4980037;28;20126;-81
2022/09/10 12:07:44;;;;;;;22.40;13.60;;;;;;;;;;4970941;28;20113;-81
2022/09/10 12:10:19;;;;;;;16.63;13.38;;;;;;;;;;4966234;28;20138;-82
2022/09/10 12:12:48;;;;;;;21.15;15.82;;;;;;;;;;4986760;28;20046;-84
2022/09/10 12:15:14;;;;;;;20.60;15.57;;;;;;;;;;4978983;28;20035;-83
2022/09/10 12:17:42;;;;;;;24.25;16.17;;;;;;;;;;4979931;28;20046;-83
2022/09/10 12:20:15;;;;;;;22.63;17.08;;;;;;;;;;4983747;28;20125;-83
2022/09/10 12:22:42;;;;;;;25.38;16.45;;;;;;;;;;4988856;28;20042;-82
2022/09/10 12:25:23;;;;;;;20.88;15.80;;;;;;;;;;4988069;28;20103;-85
2022/09/10 12:27:54;;;;;;;31.08;15.93;;;;;;;;;;4989080;28;20502;-82
2022/09/10 12:30:21;;;;;;;19.52;14.32;;;;;;;;;;4976612;28;20054;-89
2022/09/10 12:32:49;;;;;;;19.85;14.60;;;;;;;;;;4988495;28;20096;-81
2022/09/10 12:35:30;;;;;;;21.55;14.48;;;;;;;;;;4983731;28;20089;-83
2022/09/10 12:38:15;;;;;;;20.20;13.15;;;;;;;;;;4983105;28;20112;-81
2022/09/10 12:40:48;;;;;;;19.38;13.55;;;;;;;;;;4991826;28;20046;-81
2022/09/10 12:43:43;;;;;;;19.77;14.45;;;;;;;;;;4979887;28;20057;-81
2022/09/10 12:46:10;;;;;;;17.90;12.48;;;;;;;;;;4985773;28;20423;-81
2022/09/10 12:49:09;;;;;;;15.85;11.70;;;;;;;;;;4989224;28;20042;-81
2022/09/10 12:51:41;;;;;;;18.25;13.13;;;;;;;;;;4945720;28;20065;-81
2022/09/10 12:54:30;;;;;;;19.05;13.77;;;;;;;;;;4972211;28;20416;-81
2022/09/10 12:57:07;;;;;;;19.25;12.20;;;;;;;;;;4976556;28;20441;-84
2022/09/10 12:59:39;;;;;;;15.20;11.93;;;;;;;;;;4982080;28;20058;-81
2022/09/10 13:02:19;;;;;;;20.05;14.20;;;;;;;;;;4982714;28;20062;-81
2022/09/10 13:04:52;;;;;;;16.38;13.38;;;;;;;;;;4976048;28;20470;-81
2022/09/10 13:07:24;;;;;;;18.90;13.43;;;;;;;;;;4993533;28;20057;-81
2022/09/10 13:10:08;;;;;;;16.48;12.00;;;;;;;;;;4981494;28;20086;-75
2022/09/10 13:12:36;;;;;;;14.60;11.80;;;;;;;;;;4973428;28;20062;-81
2022/09/10 13:15:03;;;;;;;13.93;10.93;;;;;;;;;;4985461;28;20050;-82
2022/09/10 13:17:37;;;;;;;16.77;12.88;;;;;;;;;;4973879;28;20059;-82
2022/09/10 13:20:26;;;;;;;17.65;13.23;;;;;;;;;;4971848;28;20086;-81
2022/09/10 13:23:02;;;;;;;15.75;12.02;;;;;;;;;;4964800;28;20472;-81
2022/09/10 13:25:33;;;;;;;14.82;11.55;;;;;;;;;;4982753;28;20514;-86
2022/09/10 13:28:00;;;;;;;14.85;11.27;;;;;;;;;;4984277;28;20049;-87
2022/09/10 13:30:28;;;;;;;15.40;11.68;;;;;;;;;;4973040;28;20051;-87
2022/09/10 13:32:56;;;;;;;17.63;13.10;;;;;;;;;;4972393;28;20049;-87
2022/09/10 13:35:22;;;;;;;20.95;13.90;;;;;;;;;;4980760;28;20403;-87
2022/09/10 13:38:00;;;;;;;18.05;13.35;;;;;;;;;;4977250;28;20083;-83
2022/09/10 13:40:40;;;;;;;16.95;13.38;;;;;;;;;;4971688;28;20329;-83
2022/09/10 13:43:24;;;;;;;14.45;11.20;;;;;;;;;;4980289;28;20395;-84
2022/09/10 13:45:57;;;;;;;17.08;13.02;;;;;;;;;;4979592;28;20117;-84
2022/09/10 13:48:26;;;;;;;13.70;10.43;;;;;;;;;;4972691;28;20124;-84
2022/09/10 13:51:04;;;;;;;14.82;12.00;;;;;;;;;;4977654;28;20058;-82
2022/09/10 13:53:31;;;;;;;16.38;11.95;;;;;;;;;;4971345;28;20046;-82
2022/09/10 13:55:59;;;;;;;18.38;11.88;;;;;;;;;;4983735;28;20042;-83
2022/09/10 13:58:27;;;;;;;16.98;12.10;;;;;;;;;;4989161;28;20116;-82
2022/09/10 14:01:01;;;;;;;17.38;13.68;;;;;;;;;;4989990;28;20057;-82
2022/09/10 14:03:34;;;;;;;16.77;12.70;;;;;;;;;;4991308;28;20515;-82
2022/09/10 14:06:03;;;;;;;17.92;12.27;;;;;;;;;;4971411;28;20137;-82
2022/09/10 14:08:34;;;;;;;20.70;12.90;;;;;;;;;;4975692;28;20573;-82
2022/09/10 14:11:12;;;;;;;15.75;11.98;;;;;;;;;;4975631;28;20058;-83
2022/09/10 14:13:47;;;;;;;18.50;12.45;;;;;;;;;;4971873;28;20042;-82
2022/09/10 14:16:17;;;;;;;15.02;11.55;;;;;;;;;;4988535;28;20046;-84
2022/09/10 14:18:56;;;;;;;14.05;10.85;;;;;;;;;;4988924;28;20046;-83
2022/09/10 14:21:25;;;;;;;15.73;12.05;;;;;;;;;;4972614;28;20057;-84
2022/09/10 14:23:54;;;;;;;15.88;12.27;;;;;;;;;;4975172;28;20134;-81
2022/09/10 14:26:25;;;;;;;15.32;10.05;;;;;;;;;;4976358;28;20085;-81
2022/09/10 14:28:55;;;;;;;16.02;12.15;;;;;;;;;;4983802;28;20047;-81
2022/09/10 14:31:25;;;;;;;16.75;12.32;;;;;;;;;;4974693;28;20623;-82
2022/09/10 14:33:51;;;;;;;17.33;12.93;;;;;;;;;;4990542;28;20054;-81
2022/09/10 14:36:20;;;;;;;19.75;13.68;;;;;;;;;;4990042;28;20049;-85